Time;durP1;ratioP1;P1;durP2;ratioP2;P2;SDS_P1;SDS_P2;PMS_P1;PMS_P2;Temp;Humidity;BMP_temperature;BMP_pressure;BME280_temperature;BME280_humidity;BME280_pressure;Samples;Min_cycle;Max_cycle;Signal;HPM_P1;HPM_P2
2022/10/02 00:02:26;;;;;;;8.33;3.13;;;14.70;99.90;;;;;;941418;149;27441;-81
2022/10/02 00:04:58;;;;;;;5.70;2.50;;;14.70;99.90;;;;;;941347;149;27410;-81
2022/10/02 00:07:24;;;;;;;2.07;1.50;;;14.70;99.90;;;;;;941872;149;27501;-81
2022/10/02 00:09:51;;;;;;;6.87;2.43;;;14.60;99.90;;;;;;919736;152;27454;-81
2022/10/02 00:12:18;;;;;;;5.40;1.90;;;14.60;99.90;;;;;;941927;149;27289;-81
2022/10/02 00:14:44;;;;;;;4.77;2.17;;;14.60;99.90;;;;;;941275;149;27806;-81
2022/10/02 00:17:26;;;;;;;4.97;2.20;;;14.60;99.90;;;;;;941489;149;27772;-81
2022/10/02 00:19:55;;;;;;;4.70;2.30;;;14.50;99.90;;;;;;941475;149;27285;-80
2022/10/02 00:22:25;;;;;;;6.63;2.27;;;14.50;99.90;;;;;;941841;151;27353;-81
2022/10/02 00:24:51;;;;;;;7.67;2.90;;;14.50;99.90;;;;;;941726;149;27411;-81
2022/10/02 00:27:21;;;;;;;7.47;2.07;;;14.50;99.90;;;;;;940307;152;27298;-81
2022/10/02 00:29:47;;;;;;;7.23;3.03;;;14.50;99.90;;;;;;941785;148;27457;-81
2022/10/02 00:32:35;;;;;;;7.90;2.60;;;14.50;99.90;;;;;;943966;148;27446;-81
2022/10/02 00:35:25;;;;;;;6.90;2.37;;;14.60;99.90;;;;;;944741;148;27377;-82
2022/10/02 00:37:58;;;;;;;7.57;2.40;;;14.60;99.90;;;;;;944353;148;27285;-82
2022/10/02 00:40:36;;;;;;;6.03;1.90;;;14.70;99.90;;;;;;943539;148;27298;-82
2022/10/02 00:43:40;;;;;;;4.13;2.27;;;14.70;99.90;;;;;;944633;148;27300;-82
2022/10/02 00:46:13;;;;;;;5.17;2.20;;;14.80;99.90;;;;;;944345;148;27851;-83
2022/10/02 00:48:57;;;;;;;5.37;2.45;;;14.80;99.90;;;;;;942555;148;27509;-82
2022/10/02 00:51:29;;;;;;;9.10;2.75;;;14.90;99.90;;;;;;934284;148;27458;-83
2022/10/02 00:54:08;;;;;;;5.10;1.90;;;14.90;99.90;;;;;;944107;148;27371;-82
2022/10/02 00:57:02;;;;;;;7.87;2.10;;;15.00;99.90;;;;;;942697;148;27402;-81
2022/10/02 00:59:44;;;;;;;5.00;2.10;;;15.00;99.90;;;;;;944125;148;27399;-81
2022/10/02 01:02:13;;;;;;;4.40;1.90;;;15.10;99.90;;;;;;943874;148;27413;-81
2022/10/02 01:04:40;;;;;;;6.45;2.35;;;15.10;99.90;;;;;;942425;148;27360;-81
2022/10/02 01:07:06;;;;;;;8.23;2.45;;;15.10;99.90;;;;;;914504;152;27388;-81
2022/10/02 01:09:33;;;;;;;5.42;2.50;;;15.10;99.90;;;;;;919218;152;27346;-82
2022/10/02 01:11:59;;;;;;;5.20;2.05;;;15.20;99.90;;;;;;923339;153;27466;-81
2022/10/02 01:14:34;;;;;;;5.80;2.33;;;15.20;99.90;;;;;;922712;152;27425;-81
2022/10/02 01:17:01;;;;;;;3.70;1.92;;;15.20;99.90;;;;;;927384;152;27366;-81
2022/10/02 01:19:36;;;;;;;5.37;2.10;;;15.20;99.90;;;;;;927401;151;27406;-81
2022/10/02 01:22:03;;;;;;;6.42;2.22;;;15.30;99.90;;;;;;926811;152;27425;-81
2022/10/02 01:24:32;;;;;;;4.83;2.37;;;15.30;99.90;;;;;;926438;151;27491;-81
2022/10/02 01:26:59;;;;;;;5.70;2.23;;;15.30;99.90;;;;;;926669;151;27371;-81
2022/10/02 01:29:25;;;;;;;5.83;2.40;;;15.30;99.90;;;;;;927224;151;27425;-80
2022/10/02 01:31:52;;;;;;;5.87;1.90;;;15.40;99.90;;;;;;927370;152;27432;-81
2022/10/02 01:34:19;;;;;;;6.67;2.70;;;15.40;99.90;;;;;;927970;151;27356;-81
2022/10/02 01:36:45;;;;;;;5.72;2.45;;;15.40;99.90;;;;;;927174;151;27323;-80
2022/10/02 01:39:12;;;;;;;4.33;1.90;;;15.40;99.90;;;;;;927633;152;27387;-81
2022/10/02 01:41:38;;;;;;;5.70;2.05;;;15.40;99.90;;;;;;927483;151;27390;-81
2022/10/02 01:44:05;;;;;;;7.17;2.27;;;15.50;99.90;;;;;;927128;151;27304;-81
2022/10/02 01:46:33;;;;;;;3.52;1.87;;;15.50;99.90;;;;;;927514;152;27331;-81
2022/10/02 01:49:01;;;;;;;6.67;1.90;;;15.50;99.90;;;;;;927116;152;27339;-81
2022/10/02 01:51:52;;;;;;;5.10;2.10;;;15.50;99.90;;;;;;927114;151;27355;-80
2022/10/02 01:54:21;;;;;;;5.35;2.77;;;15.50;99.90;;;;;;927269;151;27395;-80
2022/10/02 01:56:51;;;;;;;6.67;3.02;;;15.60;99.90;;;;;;927552;152;28543;-81
2022/10/02 01:59:24;;;;;;;4.12;1.87;;;15.50;99.90;;;;;;928113;151;27362;-81
2022/10/02 02:02:05;;;;;;;6.55;2.40;;;15.60;99.90;;;;;;926256;152;27457;-81
2022/10/02 02:04:37;;;;;;;4.62;2.00;;;15.50;99.90;;;;;;927007;152;27370;-81
2022/10/02 02:07:09;;;;;;;4.27;1.90;;;15.60;99.90;;;;;;927446;151;27383;-81
2022/10/02 02:09:39;;;;;;;4.03;1.63;;;15.60;99.90;;;;;;927852;151;27362;-81
2022/10/02 02:12:14;;;;;;;4.90;1.82;;;15.60;99.90;;;;;;926957;152;27459;-80
2022/10/02 02:14:46;;;;;;;5.62;2.05;;;15.60;99.90;;;;;;928101;152;27378;-81
2022/10/02 02:17:37;;;;;;;2.15;1.45;;;15.60;99.90;;;;;;927217;151;27338;-81
2022/10/02 02:20:09;;;;;;;4.53;2.10;;;15.60;99.90;;;;;;927315;152;27375;-82
2022/10/02 02:22:36;;;;;;;5.90;1.95;;;15.60;99.90;;;;;;927145;151;27391;-81
2022/10/02 02:25:20;;;;;;;5.05;1.80;;;15.60;99.90;;;;;;927286;152;27480;-81
2022/10/02 02:27:47;;;;;;;4.40;1.85;;;15.60;99.90;;;;;;911059;154;27434;-82
2022/10/02 02:30:13;;;;;;;5.58;2.00;;;15.60;99.90;;;;;;923018;152;27459;-81
2022/10/02 02:32:40;;;;;;;5.20;1.98;;;15.60;99.90;;;;;;910562;153;27411;-81
2022/10/02 02:35:10;;;;;;;5.45;1.70;;;15.60;99.90;;;;;;910380;153;27366;-81
2022/10/02 02:37:36;;;;;;;3.05;1.75;;;15.60;99.90;;;;;;911151;153;27478;-82
2022/10/02 02:40:09;;;;;;;6.78;2.02;;;15.60;99.90;;;;;;911103;152;27419;-81
2022/10/02 02:42:35;;;;;;;3.80;1.60;;;15.60;99.90;;;;;;911146;153;27341;-82
2022/10/02 02:45:23;;;;;;;6.42;2.27;;;15.60;99.90;;;;;;911289;152;27421;-81
2022/10/02 02:47:56;;;;;;;6.25;1.85;;;15.70;99.90;;;;;;910728;153;27566;-81
2022/10/02 02:50:32;;;;;;;4.80;2.10;;;15.70;99.90;;;;;;914454;153;27436;-80
2022/10/02 02:52:58;;;;;;;5.28;2.25;;;15.70;99.90;;;;;;932138;149;27901;-79
2022/10/02 02:55:33;;;;;;;7.72;2.50;;;15.60;99.90;;;;;;931729;150;27270;-79
2022/10/02 02:58:18;;;;;;;5.00;2.30;;;15.70;99.90;;;;;;913422;153;27344;-81
2022/10/02 03:00:44;;;;;;;3.87;1.90;;;15.70;99.90;;;;;;898946;153;27317;-81
2022/10/02 03:03:11;;;;;;;7.10;2.35;;;15.70;99.90;;;;;;911798;153;27381;-81
2022/10/02 03:05:37;;;;;;;5.78;1.92;;;15.70;99.90;;;;;;912972;151;27963;-81
2022/10/02 03:08:04;;;;;;;5.30;1.95;;;15.70;99.90;;;;;;911266;153;27310;-81
2022/10/02 03:10:31;;;;;;;10.10;2.65;;;15.70;99.90;;;;;;911327;156;27422;-81
2022/10/02 03:13:06;;;;;;;7.15;2.20;;;15.80;99.90;;;;;;911120;153;27618;-81
2022/10/02 03:15:38;;;;;;;7.08;2.10;;;15.80;99.90;;;;;;906948;153;27968;-81
2022/10/02 03:18:05;;;;;;;5.90;2.00;;;15.80;99.90;;;;;;911111;153;27383;-81
2022/10/02 03:20:40;;;;;;;8.40;2.20;;;15.80;99.90;;;;;;910676;154;27431;-81
2022/10/02 03:23:22;;;;;;;6.58;2.50;;;15.80;99.90;;;;;;911547;154;27466;-82
2022/10/02 03:26:03;;;;;;;5.60;2.62;;;15.80;99.90;;;;;;911611;154;27473;-81
2022/10/02 03:28:30;;;;;;;4.03;1.55;;;15.80;99.90;;;;;;911454;152;27447;-81
2022/10/02 03:30:56;;;;;;;4.67;1.92;;;15.80;99.90;;;;;;911528;153;27743;-82
2022/10/02 03:33:23;;;;;;;6.62;2.22;;;15.90;99.90;;;;;;913027;153;27354;-82
2022/10/02 03:35:50;;;;;;;6.50;2.20;;;15.90;99.90;;;;;;913041;153;27390;-81
2022/10/02 03:38:16;;;;;;;7.37;1.80;;;15.90;99.90;;;;;;913821;153;27459;-81
2022/10/02 03:40:43;;;;;;;8.83;2.15;;;15.90;99.90;;;;;;913750;153;28034;-81
2022/10/02 03:43:09;;;;;;;4.08;1.87;;;15.90;99.90;;;;;;912407;153;27294;-81
2022/10/02 03:45:36;;;;;;;4.70;2.20;;;15.90;99.90;;;;;;911659;152;27394;-81
2022/10/02 03:48:03;;;;;;;3.60;2.08;;;16.00;99.90;;;;;;913625;153;27369;-81
2022/10/02 03:50:29;;;;;;;5.58;1.98;;;16.00;99.90;;;;;;913369;153;27455;-81
2022/10/02 03:52:56;;;;;;;6.10;1.77;;;16.00;99.90;;;;;;912527;153;27361;-81
2022/10/02 03:55:32;;;;;;;3.55;1.57;;;16.00;99.90;;;;;;913288;153;27394;-81
2022/10/02 03:57:58;;;;;;;8.88;2.47;;;16.00;99.90;;;;;;913334;153;27306;-81
2022/10/02 04:00:30;;;;;;;6.50;2.08;;;16.00;99.90;;;;;;914120;153;27315;-81
2022/10/02 04:02:59;;;;;;;5.95;2.02;;;16.10;99.90;;;;;;912826;153;27485;-82
2022/10/02 04:05:44;;;;;;;5.05;2.37;;;16.10;99.90;;;;;;912765;153;27386;-82
2022/10/02 04:08:16;;;;;;;8.38;2.33;;;16.10;99.90;;;;;;912594;153;27325;-81
2022/10/02 04:10:59;;;;;;;6.90;2.15;;;16.10;99.90;;;;;;890991;152;27368;-81
2022/10/02 04:13:43;;;;;;;6.72;2.50;;;16.10;99.90;;;;;;912284;153;27328;-81
2022/10/02 04:16:30;;;;;;;4.17;2.22;;;16.10;99.90;;;;;;911577;153;27387;-81
2022/10/02 04:19:21;;;;;;;5.70;2.30;;;16.10;99.90;;;;;;864537;157;27529;-82
2022/10/02 04:21:54;;;;;;;5.08;1.90;;;16.10;99.90;;;;;;918858;151;28804;-81
2022/10/02 04:24:35;;;;;;;6.25;2.42;;;16.10;99.90;;;;;;917802;154;27429;-81
2022/10/02 04:27:02;;;;;;;4.67;2.10;;;16.10;99.90;;;;;;931703;150;27322;-81
2022/10/02 04:29:28;;;;;;;6.08;2.10;;;16.10;99.90;;;;;;931695;151;27383;-80
2022/10/02 04:31:55;;;;;;;7.60;1.80;;;16.10;99.90;;;;;;928604;151;27414;-82
2022/10/02 04:34:21;;;;;;;5.28;2.00;;;16.10;99.90;;;;;;925966;151;27375;-81
2022/10/02 04:37:09;;;;;;;6.92;1.90;;;16.20;99.90;;;;;;927830;151;27409;-81
2022/10/02 04:39:47;;;;;;;3.20;2.05;;;16.20;99.90;;;;;;927982;151;27320;-81
2022/10/02 04:42:22;;;;;;;5.03;2.05;;;16.20;99.90;;;;;;927962;151;27937;-81
2022/10/02 04:45:01;;;;;;;6.28;2.00;;;16.20;99.90;;;;;;927298;151;27377;-81
2022/10/02 04:47:36;;;;;;;3.35;1.70;;;16.20;99.90;;;;;;927321;152;27390;-82
2022/10/02 04:50:21;;;;;;;4.15;2.02;;;16.20;99.90;;;;;;927275;152;27421;-81
2022/10/02 04:53:11;;;;;;;3.92;1.85;;;16.30;99.90;;;;;;926762;151;27425;-81
2022/10/02 04:55:45;;;;;;;4.92;2.17;;;16.30;99.90;;;;;;927437;152;27384;-82
2022/10/02 04:58:30;;;;;;;5.37;2.20;;;16.30;99.90;;;;;;926791;152;27395;-82
2022/10/02 05:01:19;;;;;;;4.78;2.30;;;16.30;99.90;;;;;;927049;152;27411;-81
2022/10/02 05:03:48;;;;;;;6.92;2.72;;;16.30;99.90;;;;;;927971;152;27508;-82
2022/10/02 05:06:14;;;;;;;7.20;2.92;;;16.30;99.90;;;;;;919371;151;27444;-80
2022/10/02 05:08:59;;;;;;;5.72;2.02;;;16.30;99.90;;;;;;927137;151;27315;-81
2022/10/02 05:11:43;;;;;;;6.83;2.80;;;16.30;99.90;;;;;;927041;152;27420;-81
2022/10/02 05:14:22;;;;;;;6.67;2.00;;;16.30;99.90;;;;;;900445;156;27522;-80
2022/10/02 05:17:03;;;;;;;5.28;2.22;;;16.30;99.90;;;;;;900707;156;27540;-81
2022/10/02 05:19:54;;;;;;;4.75;2.67;;;16.30;99.90;;;;;;913085;151;27471;-81
2022/10/02 05:22:29;;;;;;;5.60;2.02;;;16.30;99.90;;;;;;899771;152;27418;-81
2022/10/02 05:25:01;;;;;;;7.15;2.15;;;16.30;99.90;;;;;;926788;152;27383;-82
2022/10/02 05:27:31;;;;;;;5.42;2.17;;;16.30;99.90;;;;;;926997;149;27348;-81
2022/10/02 05:30:04;;;;;;;4.80;1.95;;;16.30;99.90;;;;;;926561;149;27408;-81
2022/10/02 05:32:51;;;;;;;3.62;1.87;;;16.30;99.90;;;;;;929356;151;27399;-81
2022/10/02 05:35:32;;;;;;;4.58;2.35;;;16.30;99.90;;;;;;931293;151;27371;-80
2022/10/02 05:38:17;;;;;;;6.78;2.22;;;16.30;99.90;;;;;;931751;151;27479;-81
2022/10/02 05:40:44;;;;;;;4.10;2.15;;;16.30;99.90;;;;;;931670;151;27319;-80
2022/10/02 05:43:10;;;;;;;7.42;2.60;;;16.20;99.90;;;;;;931243;151;27358;-81
2022/10/02 05:45:37;;;;;;;5.58;2.30;;;16.20;99.90;;;;;;931041;151;27289;-81
2022/10/02 05:48:12;;;;;;;8.95;2.50;;;16.20;99.90;;;;;;931914;151;27936;-81
2022/10/02 05:50:39;;;;;;;6.15;2.40;;;16.20;99.90;;;;;;895786;154;27514;-83
2022/10/02 05:53:14;;;;;;;5.87;2.47;;;16.20;99.90;;;;;;932350;151;28767;-83
2022/10/02 05:55:46;;;;;;;5.25;2.65;;;16.20;99.90;;;;;;921667;151;28014;-80
2022/10/02 05:58:13;;;;;;;4.40;2.45;;;16.20;99.90;;;;;;931485;151;27406;-80
2022/10/02 06:00:51;;;;;;;5.12;2.17;;;16.30;99.90;;;;;;931342;151;27476;-81
2022/10/02 06:03:39;;;;;;;6.10;2.90;;;16.20;99.90;;;;;;907223;151;27407;-81
2022/10/02 06:06:06;;;;;;;9.60;2.40;;;16.20;99.90;;;;;;931103;151;27763;-81
2022/10/02 06:08:40;;;;;;;4.67;2.37;;;16.20;99.90;;;;;;930939;151;27392;-82
2022/10/02 06:11:05;;;;;;;4.45;2.22;;;16.20;99.90;;;;;;931117;151;27425;-80
2022/10/02 06:13:37;;;;;;;6.25;2.12;;;16.20;99.90;;;;;;921936;151;27380;-81
2022/10/02 06:16:09;;;;;;;4.33;1.90;;;16.20;99.90;;;;;;910345;153;27408;-81
2022/10/02 06:18:36;;;;;;;5.08;1.90;;;16.20;99.90;;;;;;919717;152;27310;-81
2022/10/02 06:21:02;;;;;;;6.00;2.20;;;16.30;99.90;;;;;;933880;151;27461;-81
2022/10/02 06:23:38;;;;;;;5.35;2.20;;;16.30;99.90;;;;;;922080;150;27353;-82
2022/10/02 06:26:10;;;;;;;3.90;1.85;;;16.30;99.90;;;;;;910818;153;27318;-81
2022/10/02 06:29:00;;;;;;;7.62;2.10;;;16.30;99.90;;;;;;914260;153;27341;-81
2022/10/02 06:31:33;;;;;;;4.03;2.25;;;16.30;99.90;;;;;;912553;153;27362;-81
2022/10/02 06:34:00;;;;;;;5.53;2.30;;;16.30;99.90;;;;;;911495;153;27369;-80
2022/10/02 06:36:38;;;;;;;5.62;2.22;;;16.30;99.90;;;;;;894276;153;27532;-81
2022/10/02 06:39:05;;;;;;;4.47;1.98;;;16.30;99.90;;;;;;903464;154;27354;-81
2022/10/02 06:41:46;;;;;;;4.55;2.12;;;16.30;99.90;;;;;;930746;149;27415;-81
2022/10/02 06:44:22;;;;;;;5.78;2.20;;;16.30;99.90;;;;;;921350;151;27362;-81
2022/10/02 06:46:57;;;;;;;7.55;2.17;;;16.30;99.90;;;;;;920614;151;27415;-80
2022/10/02 06:49:56;;;;;;;2.87;1.92;;;16.40;99.90;;;;;;919516;151;27375;-82
2022/10/02 06:52:43;;;;;;;4.12;1.90;;;16.40;99.90;;;;;;911062;152;27367;-82
2022/10/02 06:55:28;;;;;;;3.67;2.00;;;16.40;99.90;;;;;;914293;152;27422;-81
2022/10/02 06:58:20;;;;;;;3.52;1.72;;;16.40;99.90;;;;;;912445;153;27456;-83
2022/10/02 07:01:22;;;;;;;5.35;1.98;;;16.40;99.90;;;;;;911264;154;27363;-82
2022/10/02 07:04:04;;;;;;;2.70;1.52;;;16.40;99.90;;;;;;911095;153;29354;-82
2022/10/02 07:06:33;;;;;;;4.25;1.92;;;16.40;99.90;;;;;;910467;154;27329;-81
2022/10/02 07:08:59;;;;;;;3.50;1.62;;;16.30;99.90;;;;;;910978;154;27418;-81
2022/10/02 07:11:32;;;;;;;2.17;1.47;;;16.30;99.90;;;;;;911014;152;27365;-82
2022/10/02 07:14:07;;;;;;;3.62;1.50;;;16.30;99.90;;;;;;909110;154;27311;-82
2022/10/02 07:17:11;;;;;;;2.77;1.32;;;16.40;99.90;;;;;;921197;149;27297;-81
2022/10/02 07:19:40;;;;;;;4.90;1.60;;;16.40;99.90;;;;;;920079;154;27397;-83
2022/10/02 07:22:25;;;;;;;2.05;1.55;;;16.40;99.90;;;;;;938559;150;27295;-81
2022/10/02 07:25:06;;;;;;;3.60;1.50;;;16.40;99.90;;;;;;939312;150;27301;-81
2022/10/02 07:27:42;;;;;;;3.77;1.37;;;16.40;99.90;;;;;;895804;154;27446;-80
2022/10/02 07:30:08;;;;;;;2.75;1.42;;;16.40;99.90;;;;;;919007;151;27315;-82
2022/10/02 07:32:37;;;;;;;3.08;1.12;;;16.40;99.90;;;;;;937149;151;27388;-81
2022/10/02 07:35:32;;;;;;;5.10;1.45;;;16.40;99.90;;;;;;937005;150;27343;-81
2022/10/02 07:37:58;;;;;;;1.42;1.32;;;16.40;99.90;;;;;;937991;148;27303;-82
2022/10/02 07:40:49;;;;;;;5.03;1.50;;;16.40;99.90;;;;;;937287;148;27358;-82
2022/10/02 07:43:28;;;;;;;11.10;3.05;;;16.40;99.90;;;;;;937629;148;27398;-81
2022/10/02 07:46:08;;;;;;;2.75;1.70;;;16.40;99.90;;;;;;936124;148;27362;-82
2022/10/02 07:48:57;;;;;;;2.47;1.40;;;16.50;99.90;;;;;;936488;148;27416;-82
2022/10/02 07:54:34;;;;;;;2.90;1.32;;;16.40;99.90;;;;;;937211;148;27433;-82
2022/10/02 07:57:00;;;;;;;3.30;1.37;;;16.40;99.90;;;;;;936733;148;27322;-82
2022/10/02 07:59:27;;;;;;;2.75;1.42;;;16.40;99.90;;;;;;936878;148;27283;-82
2022/10/02 08:01:54;;;;;;;2.55;1.40;;;16.40;99.90;;;;;;937068;148;27310;-82
2022/10/02 08:04:29;;;;;;;4.75;1.65;;;16.50;99.90;;;;;;937325;149;27992;-82
2022/10/02 08:07:01;;;;;;;5.42;3.25;;;16.50;99.90;;;;;;936922;148;27407;-82
2022/10/02 08:09:37;;;;;;;3.58;2.15;;;16.50;99.90;;;;;;937731;148;27329;-81
2022/10/02 08:12:13;;;;;;;3.25;1.90;;;16.50;99.90;;;;;;937383;149;27346;-81
2022/10/02 08:14:39;;;;;;;2.50;1.60;;;16.50;99.90;;;;;;936808;149;27293;-81
2022/10/02 08:17:30;;;;;;;2.37;1.57;;;16.60;99.90;;;;;;938039;148;27493;-82
2022/10/02 08:20:02;;;;;;;3.45;1.50;;;16.60;99.90;;;;;;938155;148;27995;-83
2022/10/02 08:22:29;;;;;;;2.47;1.17;;;16.60;99.90;;;;;;937548;152;28431;-83
2022/10/02 08:24:58;;;;;;;3.05;1.25;;;16.60;99.90;;;;;;935349;148;27294;-82
2022/10/02 08:27:25;;;;;;;2.33;1.12;;;16.60;99.90;;;;;;937560;148;27321;-81
2022/10/02 08:30:05;;;;;;;2.05;1.30;;;16.60;99.90;;;;;;936101;148;27350;-83
2022/10/02 08:32:33;;;;;;;1.85;1.22;;;16.60;99.90;;;;;;936883;148;27435;-82
2022/10/02 08:34:59;;;;;;;2.27;1.20;;;16.60;99.90;;;;;;937449;148;27424;-82
2022/10/02 08:37:29;;;;;;;1.92;1.32;;;16.70;99.90;;;;;;937507;149;27295;-81
2022/10/02 08:40:17;;;;;;;2.30;1.40;;;16.70;99.90;;;;;;936878;148;27362;-81
2022/10/02 08:43:07;;;;;;;2.67;1.20;;;16.70;99.90;;;;;;937586;148;27361;-81
2022/10/02 08:46:05;;;;;;;1.65;1.10;;;16.70;99.90;;;;;;936832;148;27357;-82
2022/10/02 08:48:50;;;;;;;1.20;1.10;;;16.70;99.90;;;;;;937728;148;28311;-83
2022/10/02 08:51:19;;;;;;;2.27;1.37;;;16.70;99.90;;;;;;935013;148;27330;-82
2022/10/02 08:53:51;;;;;;;1.50;1.30;;;16.80;99.90;;;;;;936888;149;27299;-82
2022/10/02 08:56:25;;;;;;;2.10;1.60;;;16.80;99.90;;;;;;937153;150;27356;-81
2022/10/02 08:58:53;;;;;;;1.57;1.47;;;16.80;99.90;;;;;;937526;148;27468;-82
2022/10/02 09:01:38;;;;;;;2.60;2.20;;;16.90;99.90;;;;;;937615;151;27334;-81
2022/10/02 09:04:22;;;;;;;2.52;1.67;;;17.00;99.90;;;;;;937529;148;27407;-82
2022/10/02 09:07:07;;;;;;;2.35;1.90;;;17.00;99.90;;;;;;936321;148;27305;-82
2022/10/02 09:09:46;;;;;;;1.60;1.20;;;17.10;99.90;;;;;;937960;148;27315;-81
2022/10/02 09:12:31;;;;;;;2.40;1.72;;;17.10;99.90;;;;;;936763;148;27439;-81
2022/10/02 09:15:22;;;;;;;4.00;1.85;;;17.20;99.90;;;;;;937512;148;27323;-80
2022/10/02 09:18:07;;;;;;;3.22;1.55;;;17.20;99.90;;;;;;936886;148;27661;-82
2022/10/02 09:20:39;;;;;;;2.27;1.30;;;17.30;99.90;;;;;;937431;149;27447;-81
2022/10/02 09:23:27;;;;;;;3.02;2.15;;;17.30;99.90;;;;;;937505;148;27334;-82
2022/10/02 09:26:15;;;;;;;30.00;21.35;;;17.30;99.90;;;;;;937331;148;27298;-82
2022/10/02 09:28:50;;;;;;;33.65;22.32;;;17.40;99.90;;;;;;914844;153;27401;-82
2022/10/02 09:31:28;;;;;;;18.12;15.20;;;17.40;99.90;;;;;;932324;148;27463;-82
2022/10/02 09:34:22;;;;;;;8.70;6.50;;;17.50;99.90;;;;;;937234;148;27325;-82
2022/10/02 09:37:07;;;;;;;8.00;7.20;;;17.50;99.90;;;;;;937736;151;27318;-82
2022/10/02 09:39:55;;;;;;;5.83;5.22;;;17.60;99.90;;;;;;936713;148;27259;-81
2022/10/02 09:42:21;;;;;;;7.75;4.20;;;17.60;99.90;;;;;;937584;148;27316;-82
2022/10/02 09:45:22;;;;;;;5.65;3.98;;;17.70;99.90;;;;;;937405;148;27367;-81
2022/10/02 09:48:12;;;;;;;7.87;3.72;;;17.70;99.90;;;;;;938495;148;27496;-81
2022/10/02 09:50:54;;;;;;;11.18;5.60;;;17.70;99.90;;;;;;937746;150;27419;-81
2022/10/02 09:53:29;;;;;;;8.75;3.80;;;17.70;99.90;;;;;;937057;148;27357;-82
2022/10/02 09:56:33;;;;;;;5.78;3.05;;;17.70;99.90;;;;;;936583;148;27338;-81
2022/10/02 09:59:16;;;;;;;7.90;3.83;;;17.80;99.90;;;;;;937823;148;27362;-82
2022/10/02 10:02:11;;;;;;;4.08;2.52;;;17.80;99.90;;;;;;936302;151;27446;-83
2022/10/02 10:04:45;;;;;;;11.53;3.60;;;17.80;99.90;;;;;;936923;148;27384;-82
2022/10/02 10:07:25;;;;;;;7.67;2.80;;;17.70;99.90;;;;;;936935;148;27327;-82
2022/10/02 10:10:19;;;;;;;5.20;2.72;;;17.70;99.90;;;;;;937250;148;27365;-81
2022/10/02 10:12:48;;;;;;;8.95;3.77;;;17.70;99.90;;;;;;936628;149;27466;-82
2022/10/02 10:15:36;;;;;;;9.78;3.77;;;17.70;99.90;;;;;;931371;149;27306;-82
2022/10/02 10:18:38;;;;;;;8.28;3.27;;;17.70;99.90;;;;;;937093;148;27406;-82
2022/10/02 10:21:13;;;;;;;5.80;3.10;;;17.70;99.90;;;;;;937510;148;27374;-82
2022/10/02 10:24:00;;;;;;;17.67;5.85;;;17.60;99.90;;;;;;936639;148;27293;-82
2022/10/02 10:26:33;;;;;;;8.20;3.87;;;17.60;99.90;;;;;;937680;149;27424;-82
2022/10/02 10:29:14;;;;;;;7.87;3.95;;;17.60;99.90;;;;;;937219;148;27448;-81
2022/10/02 10:31:50;;;;;;;8.70;3.47;;;17.60;99.90;;;;;;917465;151;27347;-82
2022/10/02 10:34:47;;;;;;;6.33;2.05;;;17.60;99.90;;;;;;904225;154;27447;-82
2022/10/02 10:40:38;;;;;;;11.73;4.17;;;17.60;99.90;;;;;;894639;155;28120;-82
2022/10/02 10:43:41;;;;;;;8.10;3.42;;;17.60;99.90;;;;;;900927;156;27377;-82
2022/10/02 10:46:13;;;;;;;5.80;2.75;;;17.60;99.90;;;;;;896437;156;27336;-82
2022/10/02 10:48:45;;;;;;;5.58;2.75;;;17.60;99.90;;;;;;897414;155;27494;-82
2022/10/02 10:51:46;;;;;;;5.37;2.92;;;17.60;99.90;;;;;;899953;156;27867;-82
2022/10/02 10:54:46;;;;;;;5.85;2.95;;;17.70;99.90;;;;;;901273;156;27423;-82
2022/10/02 10:57:15;;;;;;;5.50;2.90;;;17.70;99.90;;;;;;928071;152;27466;-82
2022/10/02 10:59:53;;;;;;;10.70;3.67;;;17.80;99.90;;;;;;929512;151;27350;-82
2022/10/02 11:02:52;;;;;;;6.62;2.40;;;17.80;99.90;;;;;;929044;151;27363;-82
2022/10/02 11:05:21;;;;;;;8.80;3.12;;;17.80;99.90;;;;;;929292;151;27329;-81
2022/10/02 11:07:47;;;;;;;4.53;2.40;;;17.80;99.90;;;;;;928844;151;27505;-82
2022/10/02 11:10:37;;;;;;;8.63;3.33;;;17.80;99.90;;;;;;927370;151;27369;-81
2022/10/02 11:13:08;;;;;;;21.42;15.45;;;17.80;99.90;;;;;;928902;151;27396;-82
2022/10/02 11:15:33;;;;;;;28.47;20.27;;;17.90;99.90;;;;;;928863;151;27337;-82
2022/10/02 11:18:11;;;;;;;11.20;7.80;;;17.90;99.90;;;;;;929745;151;27413;-81
2022/10/02 11:21:03;;;;;;;9.18;4.08;;;17.90;99.90;;;;;;928370;151;27358;-82
2022/10/02 11:24:03;;;;;;;7.47;3.77;;;17.90;99.90;;;;;;929622;151;27387;-81
2022/10/02 11:26:36;;;;;;;7.97;2.80;;;17.90;99.90;;;;;;927990;152;27387;-81
2022/10/02 11:29:08;;;;;;;5.40;3.00;;;18.00;99.90;;;;;;929461;151;27439;-82
2022/10/02 11:31:38;;;;;;;8.63;3.02;;;18.00;99.90;;;;;;927860;151;27426;-81
2022/10/02 11:34:23;;;;;;;5.72;2.83;;;18.00;99.90;;;;;;929610;151;27368;-82
2022/10/02 11:36:52;;;;;;;6.17;3.55;;;18.00;99.90;;;;;;935204;149;27354;-82
2022/10/02 11:39:55;;;;;;;8.03;3.95;;;18.00;99.90;;;;;;938337;152;27376;-80
2022/10/02 11:42:24;;;;;;;8.55;3.70;;;18.00;99.90;;;;;;938487;152;27333;-82
2022/10/02 11:44:53;;;;;;;3.60;2.25;;;18.00;99.90;;;;;;938043;149;27356;-82
2022/10/02 11:47:35;;;;;;;2.20;1.60;;;18.10;99.90;;;;;;933115;149;27368;-82
2022/10/02 11:50:11;;;;;;;3.80;3.30;;;18.10;99.90;;;;;;938049;150;27297;-81
2022/10/02 11:52:46;;;;;;;3.02;1.85;;;18.20;99.90;;;;;;938814;152;27291;-81
2022/10/02 11:55:50;;;;;;;5.67;3.58;;;18.20;99.90;;;;;;938470;149;27350;-82
2022/10/02 11:58:21;;;;;;;4.17;2.77;;;18.20;99.90;;;;;;899190;158;27408;-81
2022/10/02 12:01:04;;;;;;;6.60;3.45;;;18.20;99.90;;;;;;872632;161;27485;-82
2022/10/02 12:03:38;;;;;;;3.15;2.17;;;18.20;99.90;;;;;;889076;154;27329;-81
2022/10/02 12:06:14;;;;;;;5.25;2.30;;;18.10;99.90;;;;;;938349;150;27357;-82
2022/10/02 12:09:01;;;;;;;5.55;2.20;;;18.10;99.90;;;;;;938478;152;27396;-82
2022/10/02 12:11:33;;;;;;;5.22;2.08;;;18.10;99.90;;;;;;939235;152;27349;-81
2022/10/02 12:14:03;;;;;;;4.33;1.95;;;18.00;99.90;;;;;;938768;149;27383;-81
2022/10/02 12:16:32;;;;;;;2.33;1.77;;;17.90;99.90;;;;;;938535;151;27381;-82
2022/10/02 12:19:01;;;;;;;5.78;2.30;;;17.90;99.90;;;;;;938290;152;27337;-82
2022/10/02 12:27:35;;;;;;;3.08;2.00;;;17.80;99.90;;;;;;938529;152;27937;-81
2022/10/02 12:30:06;;;;;;;3.80;1.62;;;17.80;99.90;;;;;;938830;151;27343;-82
2022/10/02 12:33:06;;;;;;;2.50;1.60;;;17.80;99.90;;;;;;938610;149;27451;-82
2022/10/02 12:36:04;;;;;;;2.15;1.25;;;17.80;99.90;;;;;;937916;149;27342;-83
2022/10/02 12:38:49;;;;;;;3.55;2.00;;;17.80;99.90;;;;;;938375;150;27362;-82
2022/10/02 12:41:21;;;;;;;3.67;1.55;;;17.70;99.90;;;;;;937862;152;27506;-82
2022/10/02 12:44:15;;;;;;;6.53;2.40;;;17.80;99.90;;;;;;937101;150;27454;-82
2022/10/02 12:46:45;;;;;;;4.20;1.70;;;17.70;99.90;;;;;;937383;150;27346;-82
2022/10/02 12:49:44;;;;;;;7.05;2.20;;;17.80;99.90;;;;;;938792;152;27399;-81
2022/10/02 12:52:46;;;;;;;3.92;2.17;;;17.90;99.90;;;;;;925855;150;27741;-81
2022/10/02 12:55:42;;;;;;;3.15;1.67;;;18.00;99.90;;;;;;938335;150;27420;-82
2022/10/02 12:58:16;;;;;;;5.12;1.80;;;18.10;99.90;;;;;;938161;149;27334;-81
2022/10/02 13:01:08;;;;;;;1.37;1.27;;;18.20;99.90;;;;;;937352;150;27465;-81
2022/10/02 13:03:35;;;;;;;8.48;2.25;;;18.30;99.90;;;;;;938553;149;28100;-82
2022/10/02 13:06:16;;;;;;;3.08;1.60;;;18.40;99.90;;;;;;937332;149;27439;-82
2022/10/02 13:09:04;;;;;;;2.55;1.50;;;18.60;99.90;;;;;;938030;150;27404;-82
2022/10/02 13:11:28;;;;;;;4.75;1.87;;;18.60;99.90;;;;;;937097;149;27346;-81
2022/10/02 13:14:03;;;;;;;4.75;2.00;;;18.70;99.90;;;;;;938714;152;27322;-82
2022/10/02 13:16:53;;;;;;;3.37;1.50;;;18.70;99.90;;;;;;938464;149;27305;-81
2022/10/02 13:19:20;;;;;;;5.05;2.00;;;18.70;99.90;;;;;;938216;150;27365;-82
2022/10/02 13:22:06;;;;;;;7.62;2.10;;;18.70;99.90;;;;;;938605;149;27422;-82
2022/10/02 13:24:53;;;;;;;4.05;1.72;;;18.70;99.90;;;;;;938617;150;27338;-82
2022/10/02 13:27:36;;;;;;;2.60;1.60;;;18.60;99.90;;;;;;938921;152;27322;-82
2022/10/02 13:30:11;;;;;;;1.57;1.12;;;18.60;99.90;;;;;;929932;151;27374;-81
2022/10/02 13:33:07;;;;;;;4.83;1.50;;;18.60;99.90;;;;;;938850;149;27438;-81
2022/10/02 13:35:34;;;;;;;3.75;1.40;;;18.60;99.90;;;;;;939018;150;27415;-82
2022/10/02 13:38:25;;;;;;;4.60;1.60;;;18.50;99.90;;;;;;938861;149;27295;-82
2022/10/02 13:41:03;;;;;;;3.62;1.40;;;18.50;99.90;;;;;;942765;149;27381;-83
2022/10/02 13:44:04;;;;;;;9.10;2.50;;;18.50;99.90;;;;;;948208;148;27436;-82
2022/10/02 13:46:43;;;;;;;8.08;2.30;;;18.50;99.90;;;;;;948769;148;27373;-83
2022/10/02 13:49:21;;;;;;;5.03;2.58;;;18.50;99.90;;;;;;947588;148;27299;-82